createdAt,value
2022-12-09T00:00:29.752Z,12.95
2022-12-09T00:02:33.937Z,13.05
2022-12-09T00:04:36.861Z,17.88
2022-12-09T00:06:39.724Z,13.02
2022-12-09T00:08:42.509Z,12.50
2022-12-09T00:10:46.164Z,12.13
2022-12-09T00:12:48.845Z,12.50
2022-12-09T00:14:51.643Z,12.93
2022-12-09T00:16:54.619Z,14.70
2022-12-09T00:18:59.160Z,13.82
2022-12-09T00:21:12.463Z,12.40
2022-12-09T00:23:15.276Z,14.00
2022-12-09T00:25:18.011Z,15.45
2022-12-09T00:27:20.670Z,13.77
2022-12-09T00:29:23.530Z,11.48
2022-12-09T00:31:28.270Z,13.65
2022-12-09T00:33:31.400Z,14.93
2022-12-09T00:35:35.421Z,12.27
2022-12-09T00:37:38.104Z,11.93
2022-12-09T00:39:40.807Z,10.60
2022-12-09T00:41:43.661Z,12.95
2022-12-09T00:43:46.395Z,14.02
2022-12-09T00:45:49.501Z,14.13
2022-12-09T00:47:52.392Z,14.02
2022-12-09T00:49:55.138Z,15.50
2022-12-09T00:51:59.323Z,11.20
2022-12-09T00:54:02.168Z,12.25
2022-12-09T00:56:05.398Z,12.63
2022-12-09T00:58:08.360Z,12.65
2022-12-09T01:00:12.316Z,10.98
2022-12-09T01:02:15.548Z,13.13
2022-12-09T01:04:18.709Z,14.02
2022-12-09T01:06:24.993Z,13.75
2022-12-09T01:08:29.241Z,12.15
2022-12-09T01:10:32.040Z,12.20
2022-12-09T01:12:34.759Z,11.63
2022-12-09T01:14:37.615Z,12.10
2022-12-09T01:16:40.397Z,13.50
2022-12-09T01:18:43.389Z,12.57
2022-12-09T01:20:46.157Z,14.23
2022-12-09T01:22:48.844Z,13.13
2022-12-09T01:24:53.001Z,12.90
2022-12-09T01:26:55.855Z,11.93
2022-12-09T01:28:58.811Z,14.25
2022-12-09T01:31:07.051Z,14.07
2022-12-09T01:33:09.976Z,14.55
2022-12-09T01:35:12.882Z,12.95
2022-12-09T01:37:15.800Z,11.30
2022-12-09T01:39:18.504Z,12.27
2022-12-09T01:41:23.398Z,15.13
2022-12-09T01:43:26.249Z,15.45
2022-12-09T01:45:45.749Z,13.10
2022-12-09T01:47:49.684Z,10.25
2022-12-09T01:49:52.520Z,12.77
2022-12-09T01:52:04.686Z,9.73
2022-12-09T01:54:08.050Z,10.77
2022-12-09T01:56:16.989Z,14.23
2022-12-09T01:58:21.358Z,13.38
2022-12-09T02:00:24.232Z,14.68
2022-12-09T02:02:29.079Z,14.43
2022-12-09T02:04:35.826Z,13.70
2022-12-09T02:06:39.931Z,13.00
2022-12-09T02:08:42.834Z,12.35
2022-12-09T02:10:54.118Z,13.23
2022-12-09T02:13:05.903Z,11.45
2022-12-09T02:15:16.139Z,17.25
2022-12-09T02:17:30.910Z,15.85
2022-12-09T02:19:50.211Z,17.85
2022-12-09T02:21:58.931Z,14.68
2022-12-09T02:24:07.004Z,15.10
2022-12-09T02:26:23.624Z,14.52
2022-12-09T02:28:48.854Z,17.17
2022-12-09T02:30:59.285Z,16.20
2022-12-09T02:33:25.118Z,15.18
2022-12-09T02:35:36.510Z,17.55
2022-12-09T02:37:43.272Z,16.80
2022-12-09T02:39:53.042Z,14.00
2022-12-09T02:41:59.556Z,14.10
2022-12-09T02:44:09.077Z,16.40
2022-12-09T02:46:12.808Z,15.13
2022-12-09T02:48:19.828Z,16.88
2022-12-09T02:50:26.583Z,15.57
2022-12-09T02:52:32.910Z,16.52
2022-12-09T02:54:39.645Z,18.73
2022-12-09T02:56:47.278Z,15.82
2022-12-09T02:58:50.380Z,13.48
2022-12-09T03:00:55.735Z,16.25
2022-12-09T03:03:02.845Z,13.77
2022-12-09T03:05:14.155Z,17.10
2022-12-09T03:07:26.146Z,14.90
2022-12-09T03:09:34.345Z,13.82
2022-12-09T03:11:39.114Z,14.73
2022-12-09T03:13:51.807Z,15.23
2022-12-09T03:15:59.611Z,14.13
2022-12-09T03:18:07.203Z,19.58
2022-12-09T03:20:14.407Z,14.95
2022-12-09T03:22:20.915Z,15.27
2022-12-09T03:24:27.211Z,13.77
2022-12-09T03:26:35.133Z,19.73
2022-12-09T03:28:42.377Z,15.23
2022-12-09T03:30:46.734Z,14.70
2022-12-09T03:32:51.069Z,16.70
2022-12-09T03:35:00.674Z,13.48
2022-12-09T03:37:05.293Z,16.73
2022-12-09T03:39:13.579Z,12.02
2022-12-09T03:41:21.899Z,17.05
2022-12-09T03:43:30.959Z,14.48
2022-12-09T03:45:34.706Z,16.05
2022-12-09T03:47:39.034Z,14.07
2022-12-09T03:49:42.026Z,12.65
2022-12-09T03:51:49.138Z,12.65
2022-12-09T03:56:07.792Z,11.90
2022-12-09T03:58:13.753Z,11.48
2022-12-09T04:00:19.036Z,11.93
2022-12-09T04:02:22.231Z,11.48
2022-12-09T04:04:25.255Z,11.82
2022-12-09T04:06:28.307Z,12.25
2022-12-09T04:08:31.257Z,14.25
2022-12-09T04:10:34.047Z,12.68
2022-12-09T04:12:36.910Z,10.70
2022-12-09T04:14:40.232Z,12.05
2022-12-09T04:16:44.540Z,11.27
2022-12-09T04:18:47.540Z,12.25
2022-12-09T04:20:50.607Z,12.98
2022-12-09T04:22:53.388Z,13.55
2022-12-09T04:24:56.148Z,12.02
2022-12-09T04:26:58.738Z,12.55
2022-12-09T04:29:01.973Z,9.85
2022-12-09T04:31:05.137Z,12.05
2022-12-09T04:33:09.370Z,11.43
2022-12-09T04:35:12.516Z,9.18
2022-12-09T04:37:15.333Z,13.48
2022-12-09T04:39:19.507Z,8.75
2022-12-09T04:41:22.864Z,8.98
2022-12-09T04:43:25.667Z,8.52
2022-12-09T04:45:29.237Z,9.75
2022-12-09T04:47:33.736Z,12.05
2022-12-09T04:49:38.206Z,12.13
2022-12-09T04:51:41.134Z,10.55
2022-12-09T04:53:44.528Z,11.52
2022-12-09T04:55:47.353Z,10.98
2022-12-09T04:57:50.114Z,10.60
2022-12-09T04:59:52.985Z,10.43
2022-12-09T05:01:56.046Z,13.20
2022-12-09T05:04:00.767Z,12.05
2022-12-09T05:06:15.494Z,16.20
2022-12-09T05:08:18.671Z,12.45
2022-12-09T05:10:21.714Z,11.63
2022-12-09T05:12:24.854Z,11.65
2022-12-09T05:14:27.631Z,11.10
2022-12-09T05:16:30.427Z,14.00
2022-12-09T05:18:33.652Z,12.88
2022-12-09T05:20:40.112Z,10.10
2022-12-09T05:22:44.621Z,10.95
2022-12-09T05:24:48.173Z,11.35
2022-12-09T05:26:51.332Z,9.73
2022-12-09T05:28:54.313Z,11.80
2022-12-09T05:31:00.953Z,13.07
2022-12-09T05:33:04.263Z,11.68
2022-12-09T05:35:07.600Z,12.85
2022-12-09T05:37:14.833Z,11.07
2022-12-09T05:39:18.862Z,12.98
2022-12-09T05:41:22.963Z,10.02
2022-12-09T05:43:25.984Z,12.10
2022-12-09T05:45:29.010Z,15.43
2022-12-09T05:47:31.965Z,12.35
2022-12-09T05:49:34.985Z,14.63
2022-12-09T05:51:38.478Z,13.63
2022-12-09T05:53:42.170Z,12.68
2022-12-09T05:55:46.482Z,13.90
2022-12-09T05:57:49.308Z,10.57
2022-12-09T05:59:52.413Z,14.40
2022-12-09T06:01:55.262Z,13.15
2022-12-09T06:03:58.260Z,10.25
2022-12-09T06:06:06.647Z,15.00
2022-12-09T06:08:10.072Z,13.02
2022-12-09T06:10:13.536Z,13.52
2022-12-09T06:12:18.310Z,15.35
2022-12-09T06:14:21.016Z,15.80
2022-12-09T06:16:24.372Z,11.40
2022-12-09T06:18:27.459Z,13.18
2022-12-09T06:20:30.619Z,13.82
2022-12-09T06:22:33.887Z,13.27
2022-12-09T06:24:36.628Z,16.02
2022-12-09T06:26:39.428Z,13.50
2022-12-09T06:28:43.543Z,13.50
2022-12-09T06:30:46.433Z,14.73
2022-12-09T06:32:49.842Z,16.55
2022-12-09T06:34:53.058Z,11.02
2022-12-09T06:36:56.013Z,16.25
2022-12-09T06:39:07.701Z,13.93
2022-12-09T06:41:14.317Z,16.40
2022-12-09T06:43:17.359Z,16.25
2022-12-09T06:45:22.314Z,14.27
2022-12-09T06:47:25.165Z,16.30
2022-12-09T06:49:28.668Z,17.05
2022-12-09T06:51:31.498Z,15.70
2022-12-09T06:53:34.317Z,15.57
2022-12-09T06:55:37.328Z,16.10
2022-12-09T06:57:40.125Z,16.48
2022-12-09T06:59:42.971Z,17.38
2022-12-09T07:01:47.688Z,14.20
2022-12-09T07:03:52.565Z,15.23
2022-12-09T07:05:55.684Z,16.90
2022-12-09T07:07:58.912Z,13.80
2022-12-09T07:10:03.960Z,14.65
2022-12-09T07:12:07.956Z,14.93
2022-12-09T07:14:11.644Z,17.05
2022-12-09T07:16:14.878Z,15.40
2022-12-09T07:18:19.207Z,17.13
2022-12-09T07:20:22.355Z,15.85
2022-12-09T07:22:25.453Z,14.57
2022-12-09T07:24:28.497Z,15.23
2022-12-09T07:26:31.917Z,17.60
2022-12-09T07:28:35.880Z,18.45
2022-12-09T07:30:39.642Z,14.68
2022-12-09T07:32:42.917Z,14.95
2022-12-09T07:34:47.171Z,15.43
2022-12-09T07:36:50.167Z,18.85
2022-12-09T07:38:56.527Z,16.33
2022-12-09T07:41:06.348Z,19.40
2022-12-09T07:43:09.504Z,16.30
2022-12-09T07:45:13.413Z,17.92
2022-12-09T07:47:17.204Z,17.13
2022-12-09T07:49:20.160Z,16.98
2022-12-09T07:51:25.416Z,17.75
2022-12-09T07:53:29.050Z,18.83
2022-12-09T07:55:31.895Z,18.55
2022-12-09T07:57:37.882Z,16.33
2022-12-09T07:59:41.584Z,16.58
2022-12-09T08:01:44.595Z,16.42
2022-12-09T08:03:48.482Z,16.77
2022-12-09T08:05:52.722Z,16.48
2022-12-09T08:07:57.627Z,18.63
2022-12-09T08:10:01.169Z,19.73
2022-12-09T08:12:04.470Z,16.25
2022-12-09T08:14:12.339Z,16.55
2022-12-09T08:16:18.508Z,13.93
2022-12-09T08:18:21.389Z,16.38
2022-12-09T08:20:29.000Z,16.17
2022-12-09T08:22:32.507Z,18.55
2022-12-09T08:24:37.039Z,15.18
2022-12-09T08:26:40.410Z,19.45
2022-12-09T08:28:43.614Z,18.85
2022-12-09T08:30:47.173Z,17.25
2022-12-09T08:32:50.260Z,17.10
2022-12-09T08:34:53.218Z,14.93
2022-12-09T08:37:01.748Z,17.95
2022-12-09T08:39:05.475Z,17.23
2022-12-09T08:41:16.209Z,17.85
2022-12-09T08:43:19.103Z,16.25
2022-12-09T08:45:22.431Z,17.92
2022-12-09T08:47:25.354Z,17.55
2022-12-09T08:49:29.812Z,15.77
2022-12-09T08:51:33.439Z,14.70
2022-12-09T08:53:37.054Z,19.58
2022-12-09T08:55:41.429Z,18.58
2022-12-09T08:57:45.853Z,19.70
2022-12-09T08:59:49.173Z,18.63
2022-12-09T09:01:52.434Z,20.85
2022-12-09T09:03:55.692Z,18.02
2022-12-09T09:06:08.687Z,18.48
2022-12-09T09:08:12.564Z,20.55
2022-12-09T09:10:16.181Z,17.42
2022-12-09T09:12:19.600Z,16.63
2022-12-09T09:14:23.724Z,18.27
2022-12-09T09:16:28.443Z,16.77
2022-12-09T09:18:31.712Z,21.50
2022-12-09T09:20:34.508Z,19.05
2022-12-09T09:22:37.203Z,17.35
2022-12-09T09:24:40.361Z,17.63
2022-12-09T09:26:44.298Z,19.13
2022-12-09T09:28:48.100Z,21.45
2022-12-09T09:30:59.749Z,17.58
2022-12-09T09:33:02.773Z,20.23
2022-12-09T09:35:06.425Z,19.40
2022-12-09T09:37:09.468Z,19.25
2022-12-09T09:39:12.551Z,19.63
2022-12-09T09:41:22.500Z,20.58
2022-12-09T09:43:29.091Z,20.48
2022-12-09T09:45:32.031Z,18.52
2022-12-09T09:47:40.846Z,19.85
2022-12-09T09:49:47.728Z,20.58
2022-12-09T09:51:51.251Z,22.30
2022-12-09T09:53:54.838Z,20.50
2022-12-09T09:56:00.685Z,20.98
2022-12-09T09:58:12.386Z,19.25
2022-12-09T10:00:23.441Z,22.85
2022-12-09T10:02:41.769Z,18.08
2022-12-09T10:05:06.007Z,22.30
2022-12-09T10:07:16.340Z,22.38
2022-12-09T10:09:23.866Z,22.15
2022-12-09T10:11:33.117Z,19.70
2022-12-09T10:13:46.611Z,19.60
2022-12-09T10:16:01.995Z,21.77
2022-12-09T10:18:15.319Z,18.65
2022-12-09T10:22:25.670Z,18.70
2022-12-09T10:24:38.714Z,18.85
2022-12-09T10:26:43.746Z,21.33
2022-12-09T10:28:50.364Z,23.42
2022-12-09T10:30:54.759Z,24.00
2022-12-09T10:32:57.901Z,20.38
2022-12-09T10:35:03.732Z,21.98
2022-12-09T10:37:06.518Z,17.50
2022-12-09T10:39:15.275Z,18.83
2022-12-09T10:41:44.793Z,19.13
2022-12-09T10:43:47.972Z,19.60
2022-12-09T10:46:17.439Z,22.70
2022-12-09T10:48:32.795Z,18.65
2022-12-09T10:50:38.151Z,22.25
2022-12-09T10:52:45.331Z,20.38
2022-12-09T10:54:49.599Z,17.73
2022-12-09T10:57:06.422Z,23.70
2022-12-09T10:59:11.586Z,22.02
2022-12-09T11:01:16.722Z,27.08
2022-12-09T11:03:26.473Z,23.52
2022-12-09T11:05:33.884Z,20.73
2022-12-09T11:07:38.588Z,21.88
2022-12-09T11:09:43.935Z,22.10
2022-12-09T11:11:49.000Z,19.15
2022-12-09T11:13:52.576Z,19.85
2022-12-09T11:15:59.465Z,22.98
2022-12-09T11:20:19.566Z,22.55
2022-12-09T11:22:33.482Z,19.70
2022-12-09T11:24:37.837Z,21.00
2022-12-09T11:26:41.327Z,23.90
2022-12-09T11:28:44.140Z,23.98
2022-12-09T11:31:27.112Z,24.15
2022-12-09T11:33:26.351Z,22.98
2022-12-09T11:35:38.464Z,26.23
2022-12-09T11:37:41.889Z,23.25
2022-12-09T11:39:50.395Z,21.58
2022-12-09T11:42:17.149Z,28.65
2022-12-09T11:44:27.299Z,21.27
2022-12-09T11:46:33.244Z,22.17
2022-12-09T11:48:41.836Z,22.98
2022-12-09T11:50:51.053Z,22.63
2022-12-09T11:53:07.785Z,25.73
2022-12-09T11:55:19.643Z,21.20
2022-12-09T11:57:31.869Z,21.90
2022-12-09T11:59:39.013Z,24.23
2022-12-09T12:01:49.532Z,25.95
2022-12-09T12:03:56.734Z,21.85
2022-12-09T12:06:03.599Z,23.10
2022-12-09T12:08:15.729Z,25.08
2022-12-09T12:10:25.489Z,21.23
2022-12-09T12:12:42.427Z,23.83
2022-12-09T12:14:45.294Z,27.27
2022-12-09T12:16:58.240Z,24.35
2022-12-09T12:19:06.767Z,25.77
2022-12-09T12:21:43.525Z,28.27
2022-12-09T12:24:11.230Z,24.58
2022-12-09T12:26:20.067Z,24.58
2022-12-09T12:28:55.329Z,27.13
2022-12-09T12:31:11.320Z,25.95
2022-12-09T12:36:01.923Z,23.75
2022-12-09T12:38:16.893Z,21.92
2022-12-09T12:40:30.283Z,25.80
2022-12-09T12:43:06.279Z,24.95
2022-12-09T12:45:34.926Z,22.65
2022-12-09T12:47:51.272Z,24.50
2022-12-09T12:50:10.238Z,28.92
2022-12-09T12:55:00.809Z,24.45
2022-12-09T12:59:21.929Z,23.23
2022-12-09T13:01:30.673Z,24.20
2022-12-09T13:03:43.911Z,24.60
2022-12-09T13:05:50.007Z,22.83
2022-12-09T13:07:58.544Z,25.05
2022-12-09T13:10:06.766Z,22.67
2022-12-09T13:12:16.132Z,28.40
2022-12-09T13:14:24.576Z,25.73
2022-12-09T13:16:30.789Z,23.65
2022-12-09T13:18:37.444Z,24.40
2022-12-09T13:20:47.772Z,26.85
2022-12-09T13:22:57.199Z,25.83
2022-12-09T13:25:08.490Z,29.15
2022-12-09T13:27:19.593Z,27.60
2022-12-09T13:29:32.973Z,25.38
2022-12-09T13:31:37.742Z,27.98
2022-12-09T13:33:48.691Z,26.23
2022-12-09T13:35:56.573Z,26.45
2022-12-09T13:38:01.453Z,26.92
2022-12-09T13:40:27.606Z,28.05
2022-12-09T13:42:53.063Z,24.90
2022-12-09T13:45:06.464Z,28.60
2022-12-09T13:47:34.714Z,25.65
2022-12-09T13:49:38.440Z,26.75
2022-12-09T13:51:48.113Z,26.70
2022-12-09T13:54:00.777Z,33.75
2022-12-09T13:56:06.196Z,29.77
2022-12-09T13:58:31.078Z,28.33
2022-12-09T14:02:42.077Z,28.25
2022-12-09T14:04:50.136Z,29.05
2022-12-09T14:07:10.414Z,32.85
2022-12-09T14:09:37.409Z,33.78
2022-12-09T14:11:48.123Z,33.92
2022-12-09T14:13:50.797Z,32.83
2022-12-09T14:16:18.520Z,34.60
2022-12-09T14:18:30.787Z,33.30
2022-12-09T14:20:37.108Z,34.35
2022-12-09T14:22:40.452Z,34.13
2022-12-09T14:24:43.144Z,34.60
2022-12-09T14:26:47.722Z,33.03
2022-12-09T14:28:55.535Z,33.22
2022-12-09T14:31:06.530Z,40.90
2022-12-09T14:33:23.589Z,36.80
2022-12-09T14:35:33.309Z,33.42
2022-12-09T14:38:11.036Z,38.58
2022-12-09T14:40:32.355Z,41.65
2022-12-09T14:42:44.767Z,42.28
2022-12-09T14:44:57.618Z,39.33
2022-12-09T14:47:16.565Z,38.80
2022-12-09T14:51:29.027Z,39.40
2022-12-09T14:53:35.873Z,36.17
2022-12-09T14:55:42.019Z,35.00
2022-12-09T14:57:47.316Z,37.33
2022-12-09T14:59:51.354Z,36.95
2022-12-09T15:01:56.258Z,37.60
2022-12-09T15:04:00.846Z,39.80
2022-12-09T15:06:07.575Z,38.63
2022-12-09T15:08:28.987Z,37.88
2022-12-09T15:10:36.337Z,35.60
2022-12-09T15:12:41.585Z,41.70
2022-12-09T15:14:45.494Z,38.20
2022-12-09T15:16:50.816Z,38.13
2022-12-09T15:18:55.296Z,37.63
2022-12-09T15:21:01.265Z,35.58
2022-12-09T15:23:07.722Z,43.70
2022-12-09T15:25:17.876Z,45.25
2022-12-09T15:27:22.448Z,41.35
2022-12-09T15:29:30.447Z,39.03
2022-12-09T15:31:35.138Z,46.83
2022-12-09T15:33:41.126Z,43.60
2022-12-09T15:35:49.914Z,48.00
2022-12-09T15:37:55.657Z,44.97
2022-12-09T15:40:02.958Z,43.40
2022-12-09T15:42:10.873Z,41.70
2022-12-09T15:44:17.238Z,43.45
2022-12-09T15:46:20.565Z,39.90
2022-12-09T15:48:30.452Z,46.20
2022-12-09T15:50:37.036Z,40.42
2022-12-09T15:52:47.218Z,45.72
2022-12-09T15:54:51.297Z,51.42
2022-12-09T15:56:58.648Z,44.67
2022-12-09T15:59:06.187Z,49.10
2022-12-09T16:01:09.522Z,47.78
2022-12-09T16:03:12.268Z,48.05
2022-12-09T16:05:21.827Z,52.65
2022-12-09T16:07:25.532Z,46.30
2022-12-09T16:09:28.134Z,54.72
2022-12-09T16:11:38.354Z,57.58
2022-12-09T16:14:00.489Z,51.28
2022-12-09T16:16:25.185Z,47.33
2022-12-09T16:18:31.154Z,51.58
2022-12-09T16:20:36.346Z,46.17
2022-12-09T16:22:42.191Z,49.45
2022-12-09T16:27:17.749Z,52.42
2022-12-09T16:29:27.423Z,54.63
2022-12-09T16:31:31.099Z,46.05
2022-12-09T16:33:39.050Z,52.13
2022-12-09T16:35:43.816Z,54.58
2022-12-09T16:38:14.555Z,49.05
2022-12-09T16:41:09.122Z,52.13
2022-12-09T16:43:21.159Z,53.42
2022-12-09T16:45:32.114Z,48.83
2022-12-09T16:47:35.072Z,57.75
2022-12-09T16:49:37.872Z,57.40
2022-12-09T16:51:41.252Z,51.15
2022-12-09T16:53:46.023Z,52.58
2022-12-09T16:55:53.618Z,60.22
2022-12-09T16:57:57.645Z,58.60
2022-12-09T17:00:00.289Z,57.92
2022-12-09T17:02:04.782Z,60.53
2022-12-09T17:04:15.015Z,60.63
2022-12-09T17:06:20.327Z,62.90
2022-12-09T17:08:23.070Z,58.25
2022-12-09T17:10:25.988Z,58.83
2022-12-09T17:12:28.720Z,60.58
2022-12-09T17:14:32.026Z,61.88
2022-12-09T17:16:37.691Z,58.20
2022-12-09T17:18:42.369Z,53.13
2022-12-09T17:20:45.227Z,52.92
2022-12-09T17:22:47.869Z,56.38
2022-12-09T17:24:51.140Z,64.72
2022-12-09T17:26:53.876Z,56.35
2022-12-09T17:29:01.461Z,59.45
2022-12-09T17:31:08.394Z,60.63
2022-12-09T17:33:11.040Z,52.50
2022-12-09T17:35:16.345Z,61.15
2022-12-09T17:37:19.112Z,56.50
2022-12-09T17:39:24.677Z,60.58
2022-12-09T17:41:27.455Z,55.88
2022-12-09T17:43:30.215Z,60.95
2022-12-09T17:45:36.230Z,62.83
2022-12-09T17:47:43.064Z,58.05
2022-12-09T17:49:45.825Z,57.40
2022-12-09T17:51:49.884Z,64.85
2022-12-09T17:53:52.709Z,52.75
2022-12-09T17:55:55.516Z,55.95
2022-12-09T17:57:58.356Z,59.30
2022-12-09T18:00:01.150Z,57.88
2022-12-09T18:02:04.667Z,57.22
2022-12-09T18:04:10.349Z,58.50
2022-12-09T18:06:13.129Z,59.75
2022-12-09T18:08:17.244Z,65.22
2022-12-09T18:10:20.200Z,61.85
2022-12-09T18:12:23.207Z,51.13
2022-12-09T18:14:26.469Z,57.45
2022-12-09T18:16:29.620Z,51.42
2022-12-09T18:18:32.363Z,53.15
2022-12-09T18:20:35.257Z,53.80
2022-12-09T18:22:38.086Z,49.20
2022-12-09T18:24:42.130Z,54.10
2022-12-09T18:26:45.090Z,54.95
2022-12-09T18:28:47.779Z,56.35
2022-12-09T18:30:50.515Z,61.22
2022-12-09T18:32:53.357Z,59.58
2022-12-09T18:34:55.981Z,60.08
2022-12-09T18:36:58.735Z,60.35
2022-12-09T18:39:01.399Z,57.10
2022-12-09T18:41:05.722Z,63.05
2022-12-09T18:43:08.371Z,61.95
2022-12-09T18:45:11.629Z,59.97
2022-12-09T18:47:14.394Z,64.15
2022-12-09T18:49:19.216Z,64.25
2022-12-09T18:51:22.716Z,58.75
2022-12-09T18:53:25.707Z,57.63
2022-12-09T18:55:28.714Z,54.35
2022-12-09T18:57:33.054Z,57.03
2022-12-09T18:59:35.714Z,62.30
2022-12-09T19:01:41.160Z,58.90
2022-12-09T19:03:44.462Z,62.65
2022-12-09T19:05:47.173Z,61.75
2022-12-09T19:07:49.911Z,60.90
2022-12-09T19:09:52.699Z,63.15
2022-12-09T19:11:55.487Z,60.95
2022-12-09T19:14:00.477Z,59.03
2022-12-09T19:16:04.975Z,58.92
2022-12-09T19:18:07.694Z,65.25
2022-12-09T19:20:11.552Z,64.45
2022-12-09T19:22:14.579Z,58.00
2022-12-09T19:24:19.326Z,69.75
2022-12-09T19:26:24.060Z,60.95
2022-12-09T19:28:26.773Z,68.40
2022-12-09T19:30:31.347Z,54.28
2022-12-09T19:32:53.112Z,60.75
2022-12-09T19:34:56.078Z,55.20
2022-12-09T19:37:00.827Z,59.33
2022-12-09T19:39:06.063Z,57.60
2022-12-09T19:41:08.867Z,59.03
2022-12-09T19:43:11.648Z,65.55
2022-12-09T19:45:14.765Z,57.50
2022-12-09T19:47:18.970Z,59.72
2022-12-09T19:49:23.568Z,57.78
2022-12-09T19:51:27.212Z,52.00
2022-12-09T19:53:30.074Z,58.22
2022-12-09T19:55:35.514Z,54.40
2022-12-09T19:57:38.242Z,52.83
2022-12-09T19:59:40.898Z,58.67
2022-12-09T20:01:45.772Z,52.63
2022-12-09T20:03:51.582Z,55.60
2022-12-09T20:05:56.271Z,46.55
2022-12-09T20:07:58.975Z,52.10
2022-12-09T20:10:01.699Z,50.28
2022-12-09T20:12:04.529Z,52.00
2022-12-09T20:14:08.890Z,51.28
2022-12-09T20:16:14.969Z,55.53
2022-12-09T20:18:17.741Z,52.33
2022-12-09T20:20:23.693Z,54.83
2022-12-09T20:22:26.368Z,52.53
2022-12-09T20:24:30.745Z,54.55
2022-12-09T20:26:36.099Z,56.40
2022-12-09T20:28:40.439Z,55.40
2022-12-09T20:30:43.080Z,49.88
2022-12-09T20:32:48.480Z,49.30
2022-12-09T20:34:51.348Z,53.55
2022-12-09T20:36:55.609Z,55.63
2022-12-09T20:39:00.152Z,51.15
2022-12-09T20:41:07.083Z,49.17
2022-12-09T20:45:12.706Z,50.65
2022-12-09T20:47:15.360Z,51.72
2022-12-09T20:49:20.105Z,46.33
2022-12-09T20:51:24.790Z,49.63
2022-12-09T20:53:28.723Z,51.03
2022-12-09T20:55:31.402Z,46.08
2022-12-09T20:57:34.084Z,48.45
2022-12-09T20:59:36.742Z,53.15
2022-12-09T21:01:40.142Z,52.83
2022-12-09T21:03:44.021Z,50.83
2022-12-09T21:05:46.878Z,47.55
2022-12-09T21:07:49.592Z,52.15
2022-12-09T21:09:53.639Z,51.65
2022-12-09T21:11:57.104Z,50.67
2022-12-09T21:14:01.574Z,45.72
2022-12-09T21:16:06.001Z,46.22
2022-12-09T21:18:08.687Z,47.38
2022-12-09T21:20:13.122Z,47.75
2022-12-09T21:22:15.749Z,51.55
2022-12-09T21:24:19.410Z,52.78
2022-12-09T21:26:25.185Z,50.95
2022-12-09T21:28:29.277Z,50.75
2022-12-09T21:30:31.900Z,42.80
2022-12-09T21:32:35.063Z,54.22
2022-12-09T21:34:37.682Z,52.00
2022-12-09T21:36:43.054Z,49.60
2022-12-09T21:38:45.847Z,50.85
2022-12-09T21:40:49.163Z,49.05
2022-12-09T21:42:53.194Z,46.30
2022-12-09T21:44:55.862Z,48.05
2022-12-09T21:46:58.480Z,48.08
2022-12-09T21:49:04.410Z,51.60
2022-12-09T21:51:07.742Z,43.90
2022-12-09T21:53:10.429Z,51.88
2022-12-09T21:55:13.264Z,56.67
2022-12-09T21:57:16.168Z,56.47
2022-12-09T21:59:20.590Z,52.92
2022-12-09T22:01:27.160Z,55.35
2022-12-09T22:03:30.094Z,56.08
2022-12-09T22:05:33.466Z,47.55
2022-12-09T22:07:36.213Z,54.60
2022-12-09T22:09:39.008Z,51.13
2022-12-09T22:11:42.182Z,47.97
2022-12-09T22:13:44.894Z,53.13
2022-12-09T22:15:48.923Z,57.40
2022-12-09T22:17:51.595Z,51.90
2022-12-09T22:20:15.915Z,51.70
2022-12-09T22:22:17.025Z,48.85
2022-12-09T22:24:19.940Z,55.63
2022-12-09T22:26:23.954Z,55.92
2022-12-09T22:28:26.919Z,50.42
2022-12-09T22:30:29.531Z,54.67
2022-12-09T22:32:37.806Z,55.00
2022-12-09T22:34:44.701Z,54.35
2022-12-09T22:36:48.144Z,50.08
2022-12-09T22:38:51.409Z,50.08
2022-12-09T22:40:54.110Z,57.40
2022-12-09T22:42:56.775Z,54.53
2022-12-09T22:45:00.136Z,50.25
2022-12-09T22:47:02.809Z,51.78
2022-12-09T22:49:07.577Z,48.00
2022-12-09T22:51:12.705Z,50.35
2022-12-09T22:53:15.338Z,52.60
2022-12-09T22:55:18.044Z,55.78
2022-12-09T22:57:20.682Z,52.53
2022-12-09T22:59:23.410Z,50.15
2022-12-09T23:01:28.179Z,54.30
2022-12-09T23:03:30.912Z,49.97
2022-12-09T23:05:38.549Z,50.95
2022-12-09T23:07:41.638Z,58.47
2022-12-09T23:09:44.371Z,50.80
2022-12-09T23:11:47.225Z,51.97
2022-12-09T23:13:49.935Z,52.03
2022-12-09T23:15:52.697Z,61.53
2022-12-09T23:17:56.749Z,45.22
2022-12-09T23:19:59.439Z,48.00
2022-12-09T23:22:03.481Z,49.90
2022-12-09T23:24:09.105Z,49.28
2022-12-09T23:26:14.751Z,45.00
2022-12-09T23:28:17.664Z,48.45
2022-12-09T23:30:20.318Z,49.60
2022-12-09T23:32:22.911Z,48.03
2022-12-09T23:34:25.593Z,43.70
2022-12-09T23:36:31.591Z,50.22
2022-12-09T23:38:35.791Z,48.35
2022-12-09T23:40:38.478Z,50.63
2022-12-09T23:42:41.170Z,48.88
2022-12-09T23:44:43.832Z,47.72
2022-12-09T23:46:47.205Z,45.45
2022-12-09T23:48:51.423Z,49.35
2022-12-09T23:50:54.826Z,52.33
2022-12-09T23:52:57.463Z,50.33
2022-12-09T23:55:04.573Z,49.30
2022-12-09T23:57:07.441Z,51.63
2022-12-09T23:59:13.388Z,47.17
